createdAt,value
2022-10-23T00:00:30.305Z,2.37
2022-10-23T00:02:58.413Z,2.55
2022-10-23T00:05:27.081Z,2.40
2022-10-23T00:07:55.481Z,2.17
2022-10-23T00:10:23.158Z,2.70
2022-10-23T00:12:51.039Z,2.10
2022-10-23T00:15:20.424Z,2.13
2022-10-23T00:17:47.108Z,2.55
2022-10-23T00:20:16.324Z,2.10
2022-10-23T00:22:42.827Z,2.30
2022-10-23T00:25:10.580Z,2.30
2022-10-23T00:27:37.552Z,1.90
2022-10-23T00:30:05.843Z,2.05
2022-10-23T00:35:05.034Z,2.20
2022-10-23T00:37:33.032Z,1.97
2022-10-23T00:39:59.550Z,1.92
2022-10-23T00:42:26.221Z,2.45
2022-10-23T00:45:16.815Z,1.85
2022-10-23T00:47:43.524Z,2.17
2022-10-23T00:50:10.239Z,2.30
2022-10-23T00:52:42.705Z,1.92
2022-10-23T00:55:09.877Z,2.50
2022-10-23T00:57:39.536Z,1.85
2022-10-23T01:00:07.586Z,2.08
2022-10-23T01:02:34.667Z,2.33
2022-10-23T01:05:01.229Z,1.92
2022-10-23T01:07:33.300Z,2.08
2022-10-23T01:10:10.076Z,2.00
2022-10-23T01:12:44.392Z,2.40
2022-10-23T01:15:16.418Z,2.20
2022-10-23T01:17:48.124Z,2.20
2022-10-23T01:20:31.238Z,2.30
2022-10-23T01:23:12.094Z,2.00
2022-10-23T01:26:15.284Z,2.05
2022-10-23T01:28:49.720Z,1.70
2022-10-23T01:31:22.337Z,2.00
2022-10-23T01:33:55.852Z,1.95
2022-10-23T01:36:26.705Z,2.00
2022-10-23T01:38:58.809Z,2.10
2022-10-23T01:41:30.652Z,2.47
2022-10-23T01:44:04.731Z,2.35
2022-10-23T01:46:32.983Z,2.45
2022-10-23T01:49:00.257Z,2.10
2022-10-23T01:51:31.212Z,2.88
2022-10-23T01:54:00.400Z,1.80
2022-10-23T01:56:31.444Z,2.30
2022-10-23T01:59:03.617Z,2.40
2022-10-23T02:01:33.098Z,2.40
2022-10-23T02:04:01.171Z,2.15
2022-10-23T02:06:28.218Z,2.10
2022-10-23T02:08:54.746Z,2.40
2022-10-23T02:11:21.773Z,2.20
2022-10-23T02:13:55.998Z,2.20
2022-10-23T02:16:31.193Z,2.10
2022-10-23T02:19:07.840Z,2.10
2022-10-23T02:21:42.128Z,2.00
2022-10-23T02:24:13.628Z,2.17
2022-10-23T02:26:43.328Z,2.20
2022-10-23T02:29:14.529Z,2.03
2022-10-23T02:31:42.655Z,1.87
2022-10-23T02:34:09.242Z,2.28
2022-10-23T02:36:35.851Z,2.28
2022-10-23T02:39:02.840Z,2.13
2022-10-23T02:41:37.896Z,2.13
2022-10-23T02:44:23.663Z,1.63
2022-10-23T02:47:00.532Z,1.73
2022-10-23T02:49:34.819Z,2.03
2022-10-23T02:52:08.876Z,2.13
2022-10-23T02:54:49.119Z,2.50
2022-10-23T02:57:22.994Z,1.87
2022-10-23T02:59:59.232Z,2.47
2022-10-23T03:02:35.048Z,2.20
2022-10-23T03:05:03.087Z,1.80
2022-10-23T03:07:30.153Z,2.38
2022-10-23T03:09:56.771Z,2.20
2022-10-23T03:12:23.367Z,2.10
2022-10-23T03:14:49.882Z,2.20
2022-10-23T03:17:16.399Z,2.20
2022-10-23T03:19:44.340Z,2.20
2022-10-23T03:22:10.868Z,2.00
2022-10-23T03:24:37.391Z,2.20
2022-10-23T03:27:03.952Z,2.33
2022-10-23T03:29:30.515Z,2.00
2022-10-23T03:31:57.005Z,2.13
2022-10-23T03:34:23.480Z,1.80
2022-10-23T03:36:51.358Z,1.92
2022-10-23T03:39:17.868Z,2.45
2022-10-23T03:41:44.390Z,2.20
2022-10-23T03:44:10.986Z,2.08
2022-10-23T03:46:37.494Z,2.00
2022-10-23T03:49:04.056Z,2.17
2022-10-23T03:51:30.567Z,2.20
2022-10-23T03:53:58.416Z,1.88
2022-10-23T03:56:24.933Z,2.30
2022-10-23T03:58:51.470Z,1.93
2022-10-23T04:01:18.046Z,2.10
2022-10-23T04:03:44.599Z,2.20
2022-10-23T04:06:11.221Z,1.80
2022-10-23T04:08:37.854Z,2.38
2022-10-23T04:11:06.095Z,2.10
2022-10-23T04:13:32.596Z,2.15
2022-10-23T04:15:59.106Z,2.10
2022-10-23T04:18:25.696Z,2.10
2022-10-23T04:20:52.497Z,2.13
2022-10-23T04:23:19.022Z,2.30
2022-10-23T04:28:18.755Z,2.40
2022-10-23T04:30:45.261Z,2.30
2022-10-23T04:33:11.859Z,2.25
2022-10-23T04:35:38.456Z,1.80
2022-10-23T04:38:05.127Z,2.03
2022-10-23T04:40:31.618Z,2.05
2022-10-23T04:42:58.239Z,1.95
2022-10-23T04:45:26.255Z,2.20
2022-10-23T04:47:52.776Z,1.90
2022-10-23T04:50:19.678Z,2.58
2022-10-23T04:52:46.558Z,2.22
2022-10-23T04:55:13.040Z,2.50
2022-10-23T04:57:39.617Z,2.65
2022-10-23T05:00:08.692Z,2.33
2022-10-23T05:02:36.540Z,2.05
2022-10-23T05:05:03.506Z,2.40
2022-10-23T05:07:30.185Z,2.80
2022-10-23T05:09:56.679Z,2.33
2022-10-23T05:12:23.221Z,2.83
2022-10-23T05:14:49.717Z,3.28
2022-10-23T05:17:19.157Z,3.03
2022-10-23T05:19:52.884Z,3.20
2022-10-23T05:22:20.663Z,3.30
2022-10-23T05:24:50.423Z,3.33
2022-10-23T05:27:17.557Z,3.85
2022-10-23T05:29:44.131Z,4.25
2022-10-23T05:32:13.566Z,3.83
2022-10-23T05:34:41.188Z,3.58
2022-10-23T05:37:12.706Z,2.83
2022-10-23T05:39:39.536Z,3.00
2022-10-23T05:42:06.098Z,3.20
2022-10-23T05:44:32.686Z,3.25
2022-10-23T05:46:59.207Z,3.25
2022-10-23T05:49:25.780Z,3.43
2022-10-23T05:51:52.568Z,3.30
2022-10-23T05:54:20.410Z,3.50
2022-10-23T05:56:47.051Z,3.13
2022-10-23T05:59:13.553Z,2.97
2022-10-23T06:01:40.260Z,3.60
2022-10-23T06:04:06.874Z,3.58
2022-10-23T06:06:33.386Z,3.50
2022-10-23T06:08:59.975Z,3.60
2022-10-23T06:11:27.844Z,3.53
2022-10-23T06:13:54.441Z,3.10
2022-10-23T06:16:23.190Z,3.55
2022-10-23T06:18:49.682Z,3.75
2022-10-23T06:21:16.865Z,3.88
2022-10-23T06:23:45.239Z,3.92
2022-10-23T06:26:13.829Z,3.60
2022-10-23T06:28:42.438Z,5.47
2022-10-23T06:31:11.080Z,5.55
2022-10-23T06:33:37.760Z,4.22
2022-10-23T06:36:05.466Z,5.00
2022-10-23T06:38:32.024Z,4.10
2022-10-23T06:40:58.551Z,3.70
2022-10-23T06:43:25.084Z,3.67
2022-10-23T06:45:52.939Z,4.30
2022-10-23T06:48:19.455Z,3.40
2022-10-23T06:50:46.034Z,3.20
2022-10-23T06:53:12.608Z,3.40
2022-10-23T06:55:39.189Z,3.20
2022-10-23T06:58:05.808Z,3.22
2022-10-23T07:00:32.474Z,3.92
2022-10-23T07:03:00.531Z,3.60
2022-10-23T07:05:27.031Z,3.65
2022-10-23T07:07:53.577Z,3.90
2022-10-23T07:10:20.242Z,4.18
2022-10-23T07:12:46.739Z,3.80
2022-10-23T07:15:13.256Z,3.40
2022-10-23T07:17:39.765Z,5.65
2022-10-23T07:20:08.401Z,11.73
2022-10-23T07:22:35.029Z,7.25
2022-10-23T07:25:01.549Z,6.93
2022-10-23T07:27:28.132Z,5.17
2022-10-23T07:29:54.817Z,4.00
2022-10-23T07:32:21.452Z,4.53
2022-10-23T07:34:47.968Z,4.32
2022-10-23T07:37:15.874Z,4.25
2022-10-23T07:39:42.410Z,4.67
2022-10-23T07:42:09.680Z,4.72
2022-10-23T07:44:36.199Z,5.13
2022-10-23T07:47:04.684Z,6.05
2022-10-23T07:49:31.300Z,4.90
2022-10-23T07:51:57.933Z,5.90
2022-10-23T07:54:27.054Z,4.63
2022-10-23T07:56:53.579Z,4.43
2022-10-23T07:59:22.020Z,4.15
2022-10-23T08:01:50.561Z,4.07
2022-10-23T08:04:20.391Z,3.63
2022-10-23T08:06:46.884Z,4.05
2022-10-23T08:09:13.503Z,4.22
2022-10-23T08:11:41.423Z,3.80
2022-10-23T08:14:09.577Z,3.88
2022-10-23T08:16:38.304Z,3.30
2022-10-23T08:19:07.054Z,3.53
2022-10-23T08:21:33.588Z,3.30
2022-10-23T08:24:00.770Z,3.05
2022-10-23T08:26:28.567Z,3.53
2022-10-23T08:28:58.571Z,3.40
2022-10-23T08:31:25.484Z,3.60
2022-10-23T08:33:52.049Z,4.05
2022-10-23T08:36:21.695Z,3.50
2022-10-23T08:38:48.862Z,4.30
2022-10-23T08:41:24.524Z,3.17
2022-10-23T08:43:56.563Z,2.80
2022-10-23T08:46:29.958Z,3.20
2022-10-23T08:49:06.223Z,3.00
2022-10-23T08:51:38.379Z,3.13
2022-10-23T08:54:12.207Z,2.60
2022-10-23T08:56:43.876Z,2.53
2022-10-23T08:59:16.892Z,2.85
2022-10-23T09:01:49.369Z,3.10
2022-10-23T09:04:16.728Z,3.10
2022-10-23T09:06:50.377Z,2.70
2022-10-23T09:09:39.157Z,2.72
2022-10-23T09:12:11.595Z,3.00
2022-10-23T09:15:00.655Z,2.95
2022-10-23T09:17:30.595Z,3.08
2022-10-23T09:20:05.243Z,3.03
2022-10-23T09:22:32.104Z,2.80
2022-10-23T09:24:58.840Z,2.72
2022-10-23T09:27:25.405Z,2.95
2022-10-23T09:29:53.922Z,2.55
2022-10-23T09:32:34.416Z,2.97
2022-10-23T09:35:01.194Z,3.30
2022-10-23T09:37:29.761Z,3.40
2022-10-23T09:40:17.020Z,3.22
2022-10-23T09:42:52.897Z,3.05
2022-10-23T09:45:29.274Z,2.73
2022-10-23T09:48:16.223Z,2.70
2022-10-23T09:50:48.396Z,3.03
2022-10-23T09:53:18.760Z,2.75
2022-10-23T09:55:52.369Z,2.60
2022-10-23T09:58:21.613Z,2.50
2022-10-23T10:00:51.128Z,2.33
2022-10-23T10:03:23.925Z,2.30
2022-10-23T10:05:56.367Z,2.00
2022-10-23T10:08:28.650Z,2.58
2022-10-23T10:11:00.238Z,2.47
2022-10-23T10:13:43.671Z,2.70
2022-10-23T10:16:16.633Z,3.28
2022-10-23T10:18:50.987Z,3.05
2022-10-23T10:21:21.009Z,2.30
2022-10-23T10:23:52.762Z,2.80
2022-10-23T10:26:34.927Z,2.40
2022-10-23T10:29:12.088Z,2.70
2022-10-23T10:31:53.278Z,2.03
2022-10-23T10:34:28.616Z,2.20
2022-10-23T10:36:57.511Z,2.47
2022-10-23T10:39:40.409Z,1.70
2022-10-23T10:42:24.368Z,1.90
2022-10-23T10:45:01.876Z,2.28
2022-10-23T10:47:33.245Z,2.40
2022-10-23T10:50:18.136Z,2.37
2022-10-23T10:52:55.004Z,2.22
2022-10-23T10:55:28.250Z,2.50
2022-10-23T10:58:01.127Z,2.38
2022-10-23T11:00:31.172Z,2.90
2022-10-23T11:03:01.601Z,2.90
2022-10-23T11:05:32.787Z,2.50
2022-10-23T11:08:05.323Z,2.53
2022-10-23T11:10:33.391Z,2.63
2022-10-23T11:12:59.982Z,2.40
2022-10-23T11:15:34.053Z,2.20
2022-10-23T11:18:03.759Z,2.10
2022-10-23T11:20:45.116Z,2.10
2022-10-23T11:23:32.880Z,2.05
2022-10-23T11:26:13.409Z,2.20
2022-10-23T11:28:59.086Z,2.60
2022-10-23T11:31:35.611Z,2.38
2022-10-23T11:34:33.657Z,2.28
2022-10-23T11:37:03.416Z,2.08
2022-10-23T11:39:31.265Z,2.28
2022-10-23T11:41:59.740Z,2.10
2022-10-23T11:44:41.423Z,1.90
2022-10-23T11:47:27.590Z,3.00
2022-10-23T11:50:19.606Z,3.08
2022-10-23T11:53:14.347Z,2.60
2022-10-23T11:55:57.241Z,2.20
2022-10-23T11:58:26.160Z,2.15
2022-10-23T12:00:58.695Z,2.15
2022-10-23T12:03:30.846Z,2.40
2022-10-23T12:06:04.551Z,2.20
2022-10-23T12:08:35.612Z,2.70
2022-10-23T12:11:02.565Z,2.58
2022-10-23T12:13:42.440Z,2.80
2022-10-23T12:16:09.191Z,2.42
2022-10-23T12:18:46.729Z,3.83
2022-10-23T12:21:17.959Z,4.20
2022-10-23T12:24:02.856Z,4.10
2022-10-23T12:26:44.283Z,3.40
2022-10-23T12:29:24.258Z,2.10
2022-10-23T12:31:59.436Z,1.80
2022-10-23T12:34:36.225Z,1.60
2022-10-23T12:37:18.768Z,1.80
2022-10-23T12:39:53.104Z,1.85
2022-10-23T12:42:25.132Z,1.50
2022-10-23T12:44:59.599Z,1.58
2022-10-23T12:47:26.908Z,1.60
2022-10-23T12:49:54.646Z,1.38
2022-10-23T12:52:21.486Z,1.45
2022-10-23T12:54:51.778Z,1.35
2022-10-23T12:57:21.973Z,1.30
2022-10-23T12:59:49.576Z,1.30
2022-10-23T13:02:25.947Z,1.20
2022-10-23T13:04:54.702Z,1.40
2022-10-23T13:07:25.713Z,1.23
2022-10-23T13:09:54.503Z,1.25
2022-10-23T13:12:24.616Z,1.27
2022-10-23T13:14:56.914Z,1.42
2022-10-23T13:17:34.093Z,1.00
2022-10-23T13:20:10.108Z,1.48
2022-10-23T13:22:36.735Z,1.25
2022-10-23T13:25:26.459Z,1.50
2022-10-23T13:28:08.750Z,1.15
2022-10-23T13:30:37.854Z,1.20
2022-10-23T13:33:13.999Z,1.10
2022-10-23T13:35:40.631Z,1.15
2022-10-23T13:38:10.505Z,1.10
2022-10-23T13:40:38.362Z,1.10
2022-10-23T13:43:14.289Z,1.08
2022-10-23T13:45:41.270Z,1.30
2022-10-23T13:48:13.684Z,1.30
2022-10-23T13:50:40.257Z,1.00
2022-10-23T13:53:08.816Z,1.10
2022-10-23T13:55:35.544Z,1.40
2022-10-23T13:58:03.532Z,1.30
2022-10-23T14:00:30.035Z,1.30
2022-10-23T14:02:56.560Z,1.20
2022-10-23T14:05:23.212Z,1.20
2022-10-23T14:07:49.723Z,1.10
2022-10-23T14:10:16.603Z,1.23
2022-10-23T14:12:44.509Z,3.92
2022-10-23T14:15:13.244Z,1.30
2022-10-23T14:17:39.778Z,1.23
2022-10-23T14:20:07.492Z,1.30
2022-10-23T14:22:34.121Z,1.27
2022-10-23T14:25:00.736Z,1.15
2022-10-23T14:27:27.291Z,1.10
2022-10-23T14:29:53.777Z,1.10
2022-10-23T14:32:21.768Z,1.40
2022-10-23T14:34:52.452Z,2.45
2022-10-23T14:37:19.028Z,2.17
2022-10-23T14:39:49.717Z,1.10
2022-10-23T14:42:17.379Z,1.30
2022-10-23T14:44:44.071Z,1.52
2022-10-23T14:47:10.592Z,1.52
2022-10-23T14:49:38.592Z,1.60
2022-10-23T14:52:05.145Z,2.13
2022-10-23T14:54:31.660Z,1.90
2022-10-23T14:56:58.201Z,3.20
2022-10-23T14:59:24.730Z,3.00
2022-10-23T15:01:51.360Z,9.27
2022-10-23T15:04:17.908Z,3.57
2022-10-23T15:06:45.777Z,3.10
2022-10-23T15:09:12.583Z,2.60
2022-10-23T15:11:39.249Z,6.13
2022-10-23T15:14:06.779Z,3.35
2022-10-23T15:16:33.531Z,2.37
2022-10-23T15:19:00.031Z,1.92
2022-10-23T15:21:26.551Z,1.80
2022-10-23T15:23:54.384Z,1.90
2022-10-23T15:26:21.577Z,1.70
2022-10-23T15:28:48.262Z,1.70
2022-10-23T15:31:39.919Z,1.40
2022-10-23T15:34:07.962Z,1.55
2022-10-23T15:36:34.557Z,1.73
2022-10-23T15:39:05.717Z,1.67
2022-10-23T15:41:34.092Z,1.63
2022-10-23T15:44:02.115Z,1.70
2022-10-23T15:46:28.767Z,1.88
2022-10-23T15:48:55.493Z,1.50
2022-10-23T15:51:22.050Z,1.48
2022-10-23T15:53:48.716Z,2.00
2022-10-23T15:56:16.623Z,2.20
2022-10-23T15:58:43.179Z,1.60
2022-10-23T16:01:17.472Z,1.58
2022-10-23T16:03:44.330Z,2.10
2022-10-23T16:06:13.928Z,1.80
2022-10-23T16:08:43.137Z,2.60
2022-10-23T16:11:14.659Z,2.85
2022-10-23T16:13:42.824Z,1.50
2022-10-23T16:16:09.754Z,2.00
2022-10-23T16:18:36.411Z,1.67
2022-10-23T16:21:03.218Z,2.30
2022-10-23T16:23:29.815Z,2.17
2022-10-23T16:25:56.331Z,2.58
2022-10-23T16:28:22.834Z,1.60
2022-10-23T16:30:50.957Z,2.10
2022-10-23T16:33:17.495Z,2.20
2022-10-23T16:35:44.015Z,2.20
2022-10-23T16:38:10.697Z,2.42
2022-10-23T16:40:37.276Z,2.28
2022-10-23T16:43:03.932Z,2.00
2022-10-23T16:45:33.297Z,2.38
2022-10-23T16:48:03.829Z,1.85
2022-10-23T16:50:30.498Z,1.95
2022-10-23T16:52:57.056Z,1.70
2022-10-23T16:55:23.726Z,1.87
2022-10-23T16:57:50.275Z,1.75
2022-10-23T17:00:17.192Z,2.05
2022-10-23T17:02:44.037Z,1.63
2022-10-23T17:05:12.206Z,1.60
2022-10-23T17:07:38.735Z,1.97
2022-10-23T17:10:06.131Z,1.70
2022-10-23T17:12:32.668Z,5.03
2022-10-23T17:14:59.203Z,2.13
2022-10-23T17:17:25.692Z,1.77
2022-10-23T17:19:52.235Z,1.60
2022-10-23T17:22:20.094Z,2.20
2022-10-23T17:24:50.126Z,3.22
2022-10-23T17:27:20.146Z,2.97
2022-10-23T17:29:46.715Z,2.90
2022-10-23T17:32:13.286Z,2.23
2022-10-23T17:34:39.858Z,1.90
2022-10-23T17:37:06.363Z,2.10
2022-10-23T17:39:34.354Z,1.60
2022-10-23T17:42:00.849Z,1.90
2022-10-23T17:44:27.533Z,1.80
2022-10-23T17:46:55.116Z,1.83
2022-10-23T17:49:22.277Z,2.10
2022-10-23T17:51:51.722Z,1.65
2022-10-23T17:54:18.289Z,1.65
2022-10-23T17:56:46.391Z,1.73
2022-10-23T17:59:14.836Z,2.17
2022-10-23T18:01:42.131Z,1.50
2022-10-23T18:04:09.076Z,1.48
2022-10-23T18:06:40.540Z,1.90
2022-10-23T18:09:07.298Z,1.40
2022-10-23T18:11:35.963Z,1.58
2022-10-23T18:14:04.852Z,1.73
2022-10-23T18:16:31.592Z,1.60
2022-10-23T18:18:59.840Z,1.75
2022-10-23T18:21:26.668Z,1.60
2022-10-23T18:23:53.265Z,1.75
2022-10-23T18:26:22.146Z,1.98
2022-10-23T18:28:49.813Z,1.83
2022-10-23T18:31:18.611Z,1.80
2022-10-23T18:33:45.741Z,3.03
2022-10-23T18:36:14.954Z,2.80
2022-10-23T18:38:41.718Z,2.53
2022-10-23T18:41:08.462Z,2.38
2022-10-23T18:43:49.159Z,2.88
2022-10-23T18:46:18.383Z,3.03
2022-10-23T18:48:45.460Z,2.78
2022-10-23T18:51:17.766Z,3.30
2022-10-23T18:53:44.873Z,3.15
2022-10-23T18:56:11.371Z,3.13
2022-10-23T18:58:37.994Z,3.60
2022-10-23T19:01:04.769Z,4.07
2022-10-23T19:03:32.780Z,4.45
2022-10-23T19:05:59.498Z,4.82
2022-10-23T19:08:26.173Z,5.18
2022-10-23T19:10:53.167Z,5.00
2022-10-23T19:13:19.710Z,5.72
2022-10-23T19:15:46.408Z,6.70
2022-10-23T19:18:12.974Z,5.22
2022-10-23T19:20:42.467Z,5.45
2022-10-23T19:23:11.662Z,4.23
2022-10-23T19:25:40.616Z,3.90
2022-10-23T19:28:07.155Z,3.72
2022-10-23T19:30:34.683Z,3.63
2022-10-23T19:33:01.178Z,3.38
2022-10-23T19:35:28.209Z,2.67
2022-10-23T19:37:56.059Z,2.75
2022-10-23T19:40:22.699Z,2.80
2022-10-23T19:42:49.286Z,2.85
2022-10-23T19:45:16.731Z,2.83
2022-10-23T19:47:43.697Z,2.50
2022-10-23T19:50:10.651Z,3.00
2022-10-23T19:52:38.163Z,2.50
2022-10-23T19:55:07.588Z,2.53
2022-10-23T19:57:34.196Z,2.88
2022-10-23T20:00:01.252Z,2.83
2022-10-23T20:02:28.287Z,2.45
2022-10-23T20:04:54.864Z,2.72
2022-10-23T20:07:21.495Z,3.13
2022-10-23T20:09:48.130Z,2.50
2022-10-23T20:12:16.172Z,3.07
2022-10-23T20:14:42.677Z,2.45
2022-10-23T20:17:09.232Z,2.95
2022-10-23T20:19:35.844Z,2.80
2022-10-23T20:22:02.430Z,3.30
2022-10-23T20:24:29.175Z,2.97
2022-10-23T20:26:55.797Z,3.00
2022-10-23T20:29:24.434Z,4.03
2022-10-23T20:31:51.238Z,4.10
2022-10-23T20:34:18.123Z,3.95
2022-10-23T20:36:47.226Z,2.80
2022-10-23T20:39:16.227Z,4.05
2022-10-23T20:41:42.869Z,3.85
2022-10-23T20:44:12.521Z,3.58
2022-10-23T20:46:41.219Z,3.42
2022-10-23T20:49:07.812Z,3.40
2022-10-23T20:51:34.361Z,3.13
2022-10-23T20:54:01.212Z,3.30
2022-10-23T20:56:29.757Z,3.35
2022-10-23T20:58:56.447Z,3.10
2022-10-23T21:01:23.053Z,2.43
2022-10-23T21:03:52.753Z,4.20
2022-10-23T21:06:19.832Z,4.10
2022-10-23T21:08:46.400Z,4.50
2022-10-23T21:11:14.557Z,4.05
2022-10-23T21:13:41.626Z,3.60
2022-10-23T21:16:12.612Z,3.60
2022-10-23T21:18:46.080Z,3.42
2022-10-23T21:21:15.921Z,3.35
2022-10-23T21:23:42.716Z,3.20
2022-10-23T21:26:09.536Z,3.00
2022-10-23T21:28:36.125Z,3.00
2022-10-23T21:31:03.721Z,2.67
2022-10-23T21:33:30.863Z,2.33
2022-10-23T21:35:58.445Z,2.47
2022-10-23T21:38:32.835Z,2.50
2022-10-23T21:41:05.325Z,2.20
2022-10-23T21:43:31.949Z,2.67
2022-10-23T21:46:02.355Z,2.42
2022-10-23T21:48:28.857Z,3.15
2022-10-23T21:50:57.535Z,3.13
2022-10-23T21:53:24.208Z,3.42
2022-10-23T21:55:52.403Z,2.90
2022-10-23T21:58:18.932Z,3.75
2022-10-23T22:00:45.572Z,2.90
2022-10-23T22:03:12.079Z,2.90
2022-10-23T22:05:38.612Z,3.17
2022-10-23T22:08:05.538Z,3.35
2022-10-23T22:10:33.874Z,2.80
2022-10-23T22:13:01.857Z,2.78
2022-10-23T22:15:28.418Z,2.50
2022-10-23T22:17:55.115Z,2.40
2022-10-23T22:20:21.655Z,2.70
2022-10-23T22:22:48.187Z,2.53
2022-10-23T22:25:14.741Z,2.40
2022-10-23T22:27:41.419Z,2.60
2022-10-23T22:30:10.471Z,2.60
2022-10-23T22:32:36.966Z,3.30
2022-10-23T22:35:04.095Z,3.10
2022-10-23T22:37:30.587Z,2.80
2022-10-23T22:39:57.108Z,2.57
2022-10-23T22:42:23.615Z,3.03
2022-10-23T22:44:50.135Z,3.00
2022-10-23T22:47:17.983Z,2.88
2022-10-23T22:49:44.585Z,2.70
2022-10-23T22:52:11.067Z,2.70
2022-10-23T22:54:37.700Z,2.85
2022-10-23T22:57:04.223Z,2.55
2022-10-23T22:59:30.779Z,2.83
2022-10-23T23:01:57.385Z,2.92
2022-10-23T23:04:37.335Z,3.20
2022-10-23T23:07:05.187Z,3.10
2022-10-23T23:09:31.696Z,2.92
2022-10-23T23:11:58.210Z,2.75
2022-10-23T23:14:24.859Z,3.00
2022-10-23T23:16:52.317Z,2.77
2022-10-23T23:19:19.027Z,2.88
2022-10-23T23:21:46.911Z,2.70
2022-10-23T23:24:13.607Z,3.05
2022-10-23T23:26:40.147Z,3.17
2022-10-23T23:29:06.768Z,3.43
2022-10-23T23:31:33.403Z,3.70
2022-10-23T23:33:59.904Z,3.00
2022-10-23T23:36:27.853Z,3.33
2022-10-23T23:38:57.062Z,3.47
2022-10-23T23:41:24.888Z,3.07
2022-10-23T23:43:53.718Z,3.50
2022-10-23T23:46:20.275Z,3.67
2022-10-23T23:48:46.958Z,3.70
2022-10-23T23:51:13.712Z,3.95
2022-10-23T23:53:40.330Z,3.23
2022-10-23T23:56:08.441Z,3.70
2022-10-23T23:58:35.177Z,3.72
